sensor_id;sensor_type;location;lat;lon;timestamp;P1;P2;P0
78063;PMS5003;67429;51.596;-3.264;2023-08-12T00:01:25;7;6;
78063;PMS5003;67429;51.596;-3.264;2023-08-12T00:03:51;8;8;
78063;PMS5003;67429;51.596;-3.264;2023-08-12T00:06:16;6;6;
78063;PMS5003;67429;51.596;-3.264;2023-08-12T00:08:42;10;6;
78063;PMS5003;67429;51.596;-3.264;2023-08-12T00:11:08;9;8;
78063;PMS5003;67429;51.596;-3.264;2023-08-12T00:13:33;7;7;
78063;PMS5003;67429;51.596;-3.264;2023-08-12T00:15:59;6;6;
78063;PMS5003;67429;51.596;-3.264;2023-08-12T00:18:24;6;6;
78063;PMS5003;67429;51.596;-3.264;2023-08-12T00:20:49;10;9;
78063;PMS5003;67429;51.596;-3.264;2023-08-12T00:23:15;4;4;
78063;PMS5003;67429;51.596;-3.264;2023-08-12T00:25:40;7;5;
78063;PMS5003;67429;51.596;-3.264;2023-08-12T00:28:06;6;6;
78063;PMS5003;67429;51.596;-3.264;2023-08-12T00:30:31;6;6;
78063;PMS5003;67429;51.596;-3.264;2023-08-12T00:32:57;11;8;
78063;PMS5003;67429;51.596;-3.264;2023-08-12T00:35:23;10;8;
78063;PMS5003;67429;51.596;-3.264;2023-08-12T00:37:48;9;7;
78063;PMS5003;67429;51.596;-3.264;2023-08-12T00:40:13;8;5;
78063;PMS5003;67429;51.596;-3.264;2023-08-12T00:42:39;9;9;
78063;PMS5003;67429;51.596;-3.264;2023-08-12T00:45:05;8;8;
78063;PMS5003;67429;51.596;-3.264;2023-08-12T00:47:30;8;7;
78063;PMS5003;67429;51.596;-3.264;2023-08-12T00:49:54;7;7;
78063;PMS5003;67429;51.596;-3.264;2023-08-12T00:52:20;6;6;
78063;PMS5003;67429;51.596;-3.264;2023-08-12T00:54:46;7;7;
78063;PMS5003;67429;51.596;-3.264;2023-08-12T00:57:12;5;4;
78063;PMS5003;67429;51.596;-3.264;2023-08-12T00:59:36;6;5;
78063;PMS5003;67429;51.596;-3.264;2023-08-12T01:02:02;9;7;
78063;PMS5003;67429;51.596;-3.264;2023-08-12T01:04:27;9;9;
78063;PMS5003;67429;51.596;-3.264;2023-08-12T01:06:52;9;8;
78063;PMS5003;67429;51.596;-3.264;2023-08-12T01:09:17;6;5;
78063;PMS5003;67429;51.596;-3.264;2023-08-12T01:11:45;7;7;
78063;PMS5003;67429;51.596;-3.264;2023-08-12T01:14:10;6;6;
78063;PMS5003;67429;51.596;-3.264;2023-08-12T01:16:35;7;6;
78063;PMS5003;67429;51.596;-3.264;2023-08-12T01:18:59;7;6;
78063;PMS5003;67429;51.596;-3.264;2023-08-12T01:21:24;9;8;
78063;PMS5003;67429;51.596;-3.264;2023-08-12T01:23:50;8;7;
78063;PMS5003;67429;51.596;-3.264;2023-08-12T01:26:16;5;4;
78063;PMS5003;67429;51.596;-3.264;2023-08-12T01:28:41;10;7;
78063;PMS5003;67429;51.596;-3.264;2023-08-12T01:31:08;7;7;
78063;PMS5003;67429;51.596;-3.264;2023-08-12T01:33:34;8;7;
78063;PMS5003;67429;51.596;-3.264;2023-08-12T01:35:59;9;9;
78063;PMS5003;67429;51.596;-3.264;2023-08-12T01:38:23;6;6;
78063;PMS5003;67429;51.596;-3.264;2023-08-12T01:40:49;6;6;
78063;PMS5003;67429;51.596;-3.264;2023-08-12T01:43:14;10;9;
78063;PMS5003;67429;51.596;-3.264;2023-08-12T01:45:40;7;7;
78063;PMS5003;67429;51.596;-3.264;2023-08-12T01:48:06;5;5;
78063;PMS5003;67429;51.596;-3.264;2023-08-12T01:50:30;6;5;
78063;PMS5003;67429;51.596;-3.264;2023-08-12T01:52:56;7;6;
78063;PMS5003;67429;51.596;-3.264;2023-08-12T01:55:21;6;6;
78063;PMS5003;67429;51.596;-3.264;2023-08-12T01:57:47;8;8;
78063;PMS5003;67429;51.596;-3.264;2023-08-12T02:00:12;10;8;
78063;PMS5003;67429;51.596;-3.264;2023-08-12T02:02:38;8;6;
78063;PMS5003;67429;51.596;-3.264;2023-08-12T02:05:03;8;7;
78063;PMS5003;67429;51.596;-3.264;2023-08-12T02:07:29;9;8;
78063;PMS5003;67429;51.596;-3.264;2023-08-12T02:09:54;7;7;
78063;PMS5003;67429;51.596;-3.264;2023-08-12T02:12:19;6;6;
78063;PMS5003;67429;51.596;-3.264;2023-08-12T02:14:45;8;6;
78063;PMS5003;67429;51.596;-3.264;2023-08-12T02:17:10;8;8;
78063;PMS5003;67429;51.596;-3.264;2023-08-12T02:19:35;10;9;
78063;PMS5003;67429;51.596;-3.264;2023-08-12T02:22:01;6;6;
78063;PMS5003;67429;51.596;-3.264;2023-08-12T02:24:27;7;7;
78063;PMS5003;67429;51.596;-3.264;2023-08-12T02:26:52;7;7;
78063;PMS5003;67429;51.596;-3.264;2023-08-12T02:29:17;7;6;
78063;PMS5003;67429;51.596;-3.264;2023-08-12T02:31:43;8;7;
78063;PMS5003;67429;51.596;-3.264;2023-08-12T02:34:08;6;5;
78063;PMS5003;67429;51.596;-3.264;2023-08-12T02:36:34;8;7;
78063;PMS5003;67429;51.596;-3.264;2023-08-12T02:39:00;8;7;
78063;PMS5003;67429;51.596;-3.264;2023-08-12T02:41:25;6;5;
78063;PMS5003;67429;51.596;-3.264;2023-08-12T02:43:51;9;6;
78063;PMS5003;67429;51.596;-3.264;2023-08-12T02:46:16;6;6;
78063;PMS5003;67429;51.596;-3.264;2023-08-12T02:48:42;9;7;
78063;PMS5003;67429;51.596;-3.264;2023-08-12T02:51:07;6;6;
78063;PMS5003;67429;51.596;-3.264;2023-08-12T02:53:33;7;7;
78063;PMS5003;67429;51.596;-3.264;2023-08-12T02:55:58;7;7;
78063;PMS5003;67429;51.596;-3.264;2023-08-12T02:58:24;12;10;
78063;PMS5003;67429;51.596;-3.264;2023-08-12T03:00:50;9;8;
78063;PMS5003;67429;51.596;-3.264;2023-08-12T03:03:15;7;7;
78063;PMS5003;67429;51.596;-3.264;2023-08-12T03:05:40;10;8;
78063;PMS5003;67429;51.596;-3.264;2023-08-12T03:08:06;10;10;
78063;PMS5003;67429;51.596;-3.264;2023-08-12T03:10:33;7;6;
78063;PMS5003;67429;51.596;-3.264;2023-08-12T03:12:57;6;5;
78063;PMS5003;67429;51.596;-3.264;2023-08-12T03:15:23;8;7;
78063;PMS5003;67429;51.596;-3.264;2023-08-12T03:17:47;7;7;
78063;PMS5003;67429;51.596;-3.264;2023-08-12T03:20:13;7;6;
78063;PMS5003;67429;51.596;-3.264;2023-08-12T03:22:39;5;4;
78063;PMS5003;67429;51.596;-3.264;2023-08-12T03:25:04;7;7;
78063;PMS5003;67429;51.596;-3.264;2023-08-12T03:27:30;10;9;
78063;PMS5003;67429;51.596;-3.264;2023-08-12T03:29:55;8;5;
78063;PMS5003;67429;51.596;-3.264;2023-08-12T03:32:21;8;8;
78063;PMS5003;67429;51.596;-3.264;2023-08-12T03:34:46;9;8;
78063;PMS5003;67429;51.596;-3.264;2023-08-12T03:37:12;8;7;
78063;PMS5003;67429;51.596;-3.264;2023-08-12T03:39:37;8;8;
78063;PMS5003;67429;51.596;-3.264;2023-08-12T03:42:02;7;6;
78063;PMS5003;67429;51.596;-3.264;2023-08-12T03:44:28;8;6;
78063;PMS5003;67429;51.596;-3.264;2023-08-12T03:46:53;10;7;
78063;PMS5003;67429;51.596;-3.264;2023-08-12T03:49:19;8;7;
78063;PMS5003;67429;51.596;-3.264;2023-08-12T03:51:44;6;6;
78063;PMS5003;67429;51.596;-3.264;2023-08-12T03:54:09;10;6;
78063;PMS5003;67429;51.596;-3.264;2023-08-12T03:56:35;7;7;
78063;PMS5003;67429;51.596;-3.264;2023-08-12T03:59:00;8;7;
78063;PMS5003;67429;51.596;-3.264;2023-08-12T04:01:25;8;8;
78063;PMS5003;67429;51.596;-3.264;2023-08-12T04:03:50;5;5;
78063;PMS5003;67429;51.596;-3.264;2023-08-12T04:06:16;8;7;
78063;PMS5003;67429;51.596;-3.264;2023-08-12T04:08:41;11;10;
78063;PMS5003;67429;51.596;-3.264;2023-08-12T04:11:07;8;8;
78063;PMS5003;67429;51.596;-3.264;2023-08-12T04:13:32;7;7;
78063;PMS5003;67429;51.596;-3.264;2023-08-12T04:15:58;10;9;
78063;PMS5003;67429;51.596;-3.264;2023-08-12T04:18:23;8;8;
78063;PMS5003;67429;51.596;-3.264;2023-08-12T04:20:49;9;9;
78063;PMS5003;67429;51.596;-3.264;2023-08-12T04:23:14;8;7;
78063;PMS5003;67429;51.596;-3.264;2023-08-12T04:25:39;9;9;
78063;PMS5003;67429;51.596;-3.264;2023-08-12T04:28:05;8;7;
78063;PMS5003;67429;51.596;-3.264;2023-08-12T04:30:31;9;9;
78063;PMS5003;67429;51.596;-3.264;2023-08-12T04:32:56;6;6;
78063;PMS5003;67429;51.596;-3.264;2023-08-12T04:35:22;8;8;
78063;PMS5003;67429;51.596;-3.264;2023-08-12T04:37:47;7;7;
78063;PMS5003;67429;51.596;-3.264;2023-08-12T04:40:12;7;7;
78063;PMS5003;67429;51.596;-3.264;2023-08-12T04:42:38;8;8;
78063;PMS5003;67429;51.596;-3.264;2023-08-12T04:45:03;6;5;
78063;PMS5003;67429;51.596;-3.264;2023-08-12T04:47:29;9;9;
78063;PMS5003;67429;51.596;-3.264;2023-08-12T04:49:54;11;6;
78063;PMS5003;67429;51.596;-3.264;2023-08-12T04:52:20;8;6;
78063;PMS5003;67429;51.596;-3.264;2023-08-12T04:54:45;6;6;
78063;PMS5003;67429;51.596;-3.264;2023-08-12T04:57:11;11;9;
78063;PMS5003;67429;51.596;-3.264;2023-08-12T04:59:36;7;7;
78063;PMS5003;67429;51.596;-3.264;2023-08-12T05:02:02;7;6;
78063;PMS5003;67429;51.596;-3.264;2023-08-12T05:04:27;7;6;
78063;PMS5003;67429;51.596;-3.264;2023-08-12T05:06:53;8;7;
78063;PMS5003;67429;51.596;-3.264;2023-08-12T05:09:18;8;7;
78063;PMS5003;67429;51.596;-3.264;2023-08-12T05:11:44;8;8;
78063;PMS5003;67429;51.596;-3.264;2023-08-12T05:14:10;8;7;
78063;PMS5003;67429;51.596;-3.264;2023-08-12T05:16:35;9;9;
78063;PMS5003;67429;51.596;-3.264;2023-08-12T05:19:00;7;6;
78063;PMS5003;67429;51.596;-3.264;2023-08-12T05:21:26;10;9;
78063;PMS5003;67429;51.596;-3.264;2023-08-12T05:23:52;9;8;
78063;PMS5003;67429;51.596;-3.264;2023-08-12T05:26:17;5;5;
78063;PMS5003;67429;51.596;-3.264;2023-08-12T05:28:43;10;8;
78063;PMS5003;67429;51.596;-3.264;2023-08-12T05:31:08;7;5;
78063;PMS5003;67429;51.596;-3.264;2023-08-12T05:33:34;6;6;
78063;PMS5003;67429;51.596;-3.264;2023-08-12T05:35:59;8;6;
78063;PMS5003;67429;51.596;-3.264;2023-08-12T05:38:24;7;7;
78063;PMS5003;67429;51.596;-3.264;2023-08-12T05:40:49;7;6;
78063;PMS5003;67429;51.596;-3.264;2023-08-12T05:43:15;7;7;
78063;PMS5003;67429;51.596;-3.264;2023-08-12T05:45:40;9;9;
78063;PMS5003;67429;51.596;-3.264;2023-08-12T05:48:07;6;6;
78063;PMS5003;67429;51.596;-3.264;2023-08-12T05:50:31;7;5;
78063;PMS5003;67429;51.596;-3.264;2023-08-12T05:52:57;7;7;
78063;PMS5003;67429;51.596;-3.264;2023-08-12T05:55:23;5;4;
78063;PMS5003;67429;51.596;-3.264;2023-08-12T05:57:48;6;6;
78063;PMS5003;67429;51.596;-3.264;2023-08-12T06:00:14;9;6;
78063;PMS5003;67429;51.596;-3.264;2023-08-12T06:02:39;7;6;
78063;PMS5003;67429;51.596;-3.264;2023-08-12T06:05:05;9;7;
78063;PMS5003;67429;51.596;-3.264;2023-08-12T06:07:30;7;6;
78063;PMS5003;67429;51.596;-3.264;2023-08-12T06:09:55;7;7;
78063;PMS5003;67429;51.596;-3.264;2023-08-12T06:12:20;7;6;
78063;PMS5003;67429;51.596;-3.264;2023-08-12T06:14:46;5;5;
78063;PMS5003;67429;51.596;-3.264;2023-08-12T06:17:11;6;5;
78063;PMS5003;67429;51.596;-3.264;2023-08-12T06:19:37;7;6;
78063;PMS5003;67429;51.596;-3.264;2023-08-12T06:22:02;4;4;
78063;PMS5003;67429;51.596;-3.264;2023-08-12T06:24:28;8;7;
78063;PMS5003;67429;51.596;-3.264;2023-08-12T06:26:53;5;5;
78063;PMS5003;67429;51.596;-3.264;2023-08-12T06:29:19;5;5;
78063;PMS5003;67429;51.596;-3.264;2023-08-12T06:31:45;6;5;
78063;PMS5003;67429;51.596;-3.264;2023-08-12T06:34:10;6;5;
78063;PMS5003;67429;51.596;-3.264;2023-08-12T06:36:35;7;5;
78063;PMS5003;67429;51.596;-3.264;2023-08-12T06:39:01;8;6;
78063;PMS5003;67429;51.596;-3.264;2023-08-12T06:41:26;5;5;
78063;PMS5003;67429;51.596;-3.264;2023-08-12T06:43:52;5;5;
78063;PMS5003;67429;51.596;-3.264;2023-08-12T06:46:17;6;6;
78063;PMS5003;67429;51.596;-3.264;2023-08-12T06:48:43;6;6;
78063;PMS5003;67429;51.596;-3.264;2023-08-12T06:51:08;6;6;
78063;PMS5003;67429;51.596;-3.264;2023-08-12T06:53:34;7;7;
78063;PMS5003;67429;51.596;-3.264;2023-08-12T06:55:59;7;5;
78063;PMS5003;67429;51.596;-3.264;2023-08-12T06:58:25;2;2;
78063;PMS5003;67429;51.596;-3.264;2023-08-12T07:00:51;5;4;
78063;PMS5003;67429;51.596;-3.264;2023-08-12T07:03:16;7;7;
78063;PMS5003;67429;51.596;-3.264;2023-08-12T07:05:41;10;8;
78063;PMS5003;67429;51.596;-3.264;2023-08-12T07:08:07;6;4;
78063;PMS5003;67429;51.596;-3.264;2023-08-12T07:10:32;8;7;
78063;PMS5003;67429;51.596;-3.264;2023-08-12T07:12:58;6;5;
78063;PMS5003;67429;51.596;-3.264;2023-08-12T07:15:23;4;4;
78063;PMS5003;67429;51.596;-3.264;2023-08-12T07:17:49;7;7;
78063;PMS5003;67429;51.596;-3.264;2023-08-12T07:20:15;7;7;
78063;PMS5003;67429;51.596;-3.264;2023-08-12T07:22:40;6;5;
78063;PMS5003;67429;51.596;-3.264;2023-08-12T07:25:06;7;6;
78063;PMS5003;67429;51.596;-3.264;2023-08-12T07:27:31;4;3;
78063;PMS5003;67429;51.596;-3.264;2023-08-12T07:29:56;6;5;
78063;PMS5003;67429;51.596;-3.264;2023-08-12T07:32:21;6;5;
78063;PMS5003;67429;51.596;-3.264;2023-08-12T07:34:46;5;5;
78063;PMS5003;67429;51.596;-3.264;2023-08-12T07:37:12;9;8;
78063;PMS5003;67429;51.596;-3.264;2023-08-12T07:39:37;6;6;
78063;PMS5003;67429;51.596;-3.264;2023-08-12T07:42:03;5;5;
78063;PMS5003;67429;51.596;-3.264;2023-08-12T07:44:28;7;6;
78063;PMS5003;67429;51.596;-3.264;2023-08-12T07:46:54;4;3;
78063;PMS5003;67429;51.596;-3.264;2023-08-12T07:49:19;5;5;
78063;PMS5003;67429;51.596;-3.264;2023-08-12T07:51:45;4;4;
78063;PMS5003;67429;51.596;-3.264;2023-08-12T07:54:10;7;7;
78063;PMS5003;67429;51.596;-3.264;2023-08-12T07:56:36;5;5;
78063;PMS5003;67429;51.596;-3.264;2023-08-12T07:59:01;7;4;
78063;PMS5003;67429;51.596;-3.264;2023-08-12T08:01:27;4;4;
78063;PMS5003;67429;51.596;-3.264;2023-08-12T08:03:52;2;2;
78063;PMS5003;67429;51.596;-3.264;2023-08-12T08:06:17;4;3;
78063;PMS5003;67429;51.596;-3.264;2023-08-12T08:08:42;3;3;
78063;PMS5003;67429;51.596;-3.264;2023-08-12T08:11:08;2;2;
78063;PMS5003;67429;51.596;-3.264;2023-08-12T08:13:34;1;1;
78063;PMS5003;67429;51.596;-3.264;2023-08-12T08:15:59;0;0;
78063;PMS5003;67429;51.596;-3.264;2023-08-12T08:18:24;2;1;
78063;PMS5003;67429;51.596;-3.264;2023-08-12T08:20:50;0;0;
78063;PMS5003;67429;51.596;-3.264;2023-08-12T08:23:15;2;2;
78063;PMS5003;67429;51.596;-3.264;2023-08-12T08:25:41;3;3;
78063;PMS5003;67429;51.596;-3.264;2023-08-12T08:28:06;1;1;
78063;PMS5003;67429;51.596;-3.264;2023-08-12T08:30:32;1;1;
78063;PMS5003;67429;51.596;-3.264;2023-08-12T08:32:57;3;3;
78063;PMS5003;67429;51.596;-3.264;2023-08-12T08:35:22;2;2;
78063;PMS5003;67429;51.596;-3.264;2023-08-12T08:37:48;0;0;
78063;PMS5003;67429;51.596;-3.264;2023-08-12T08:40:13;3;2;
78063;PMS5003;67429;51.596;-3.264;2023-08-12T08:42:39;4;3;
78063;PMS5003;67429;51.596;-3.264;2023-08-12T08:45:05;4;3;
78063;PMS5003;67429;51.596;-3.264;2023-08-12T08:47:29;6;5;
78063;PMS5003;67429;51.596;-3.264;2023-08-12T08:49:55;4;2;
78063;PMS5003;67429;51.596;-3.264;2023-08-12T08:52:20;3;3;
78063;PMS5003;67429;51.596;-3.264;2023-08-12T08:54:46;5;5;
78063;PMS5003;67429;51.596;-3.264;2023-08-12T08:57:12;3;3;
78063;PMS5003;67429;51.596;-3.264;2023-08-12T08:59:37;5;5;
78063;PMS5003;67429;51.596;-3.264;2023-08-12T09:02:02;3;3;
78063;PMS5003;67429;51.596;-3.264;2023-08-12T09:04:28;7;5;
78063;PMS5003;67429;51.596;-3.264;2023-08-12T09:06:53;3;3;
78063;PMS5003;67429;51.596;-3.264;2023-08-12T09:09:19;5;5;
78063;PMS5003;67429;51.596;-3.264;2023-08-12T09:11:44;5;2;
78063;PMS5003;67429;51.596;-3.264;2023-08-12T09:14:10;6;5;
78063;PMS5003;67429;51.596;-3.264;2023-08-12T09:16:35;6;5;
78063;PMS5003;67429;51.596;-3.264;2023-08-12T09:19:01;5;5;
78063;PMS5003;67429;51.596;-3.264;2023-08-12T09:21:26;7;7;
78063;PMS5003;67429;51.596;-3.264;2023-08-12T09:23:52;4;4;
78063;PMS5003;67429;51.596;-3.264;2023-08-12T09:26:18;7;6;
78063;PMS5003;67429;51.596;-3.264;2023-08-12T09:28:43;5;4;
78063;PMS5003;67429;51.596;-3.264;2023-08-12T09:31:11;7;7;
78063;PMS5003;67429;51.596;-3.264;2023-08-12T09:33:38;4;4;
78063;PMS5003;67429;51.596;-3.264;2023-08-12T09:36:00;6;5;
78063;PMS5003;67429;51.596;-3.264;2023-08-12T09:38:26;5;5;
78063;PMS5003;67429;51.596;-3.264;2023-08-12T09:40:51;5;4;
78063;PMS5003;67429;51.596;-3.264;2023-08-12T09:43:16;6;6;
78063;PMS5003;67429;51.596;-3.264;2023-08-12T09:45:43;4;4;
78063;PMS5003;67429;51.596;-3.264;2023-08-12T09:48:07;6;5;
78063;PMS5003;67429;51.596;-3.264;2023-08-12T09:50:32;4;3;
78063;PMS5003;67429;51.596;-3.264;2023-08-12T09:52:58;3;3;
78063;PMS5003;67429;51.596;-3.264;2023-08-12T09:55:24;5;4;
78063;PMS5003;67429;51.596;-3.264;2023-08-12T09:57:50;7;6;
78063;PMS5003;67429;51.596;-3.264;2023-08-12T10:00:15;6;4;
78063;PMS5003;67429;51.596;-3.264;2023-08-12T10:02:40;6;5;
78063;PMS5003;67429;51.596;-3.264;2023-08-12T10:05:05;3;2;
78063;PMS5003;67429;51.596;-3.264;2023-08-12T10:07:31;5;5;
78063;PMS5003;67429;51.596;-3.264;2023-08-12T10:09:56;1;1;
78063;PMS5003;67429;51.596;-3.264;2023-08-12T10:12:22;1;1;
78063;PMS5003;67429;51.596;-3.264;2023-08-12T10:14:47;1;1;
78063;PMS5003;67429;51.596;-3.264;2023-08-12T10:17:12;1;1;
78063;PMS5003;67429;51.596;-3.264;2023-08-12T10:19:38;0;0;
78063;PMS5003;67429;51.596;-3.264;2023-08-12T10:22:04;1;0;
78063;PMS5003;67429;51.596;-3.264;2023-08-12T10:24:29;1;1;
78063;PMS5003;67429;51.596;-3.264;2023-08-12T10:26:55;0;0;
78063;PMS5003;67429;51.596;-3.264;2023-08-12T10:29:20;2;2;
78063;PMS5003;67429;51.596;-3.264;2023-08-12T10:31:46;1;1;
78063;PMS5003;67429;51.596;-3.264;2023-08-12T10:36:40;2;1;
78063;PMS5003;67429;51.596;-3.264;2023-08-12T10:39:02;1;1;
78063;PMS5003;67429;51.596;-3.264;2023-08-12T10:41:27;1;1;
78063;PMS5003;67429;51.596;-3.264;2023-08-12T10:43:53;1;1;
78063;PMS5003;67429;51.596;-3.264;2023-08-12T10:46:22;2;2;
78063;PMS5003;67429;51.596;-3.264;2023-08-12T10:48:47;2;2;
78063;PMS5003;67429;51.596;-3.264;2023-08-12T10:51:09;2;2;
78063;PMS5003;67429;51.596;-3.264;2023-08-12T10:53:34;3;1;
78063;PMS5003;67429;51.596;-3.264;2023-08-12T10:56:03;3;2;
78063;PMS5003;67429;51.596;-3.264;2023-08-12T10:58:27;0;0;
78063;PMS5003;67429;51.596;-3.264;2023-08-12T11:00:52;1;1;
78063;PMS5003;67429;51.596;-3.264;2023-08-12T11:03:16;2;2;
78063;PMS5003;67429;51.596;-3.264;2023-08-12T11:05:41;1;1;
78063;PMS5003;67429;51.596;-3.264;2023-08-12T11:08:07;4;2;
78063;PMS5003;67429;51.596;-3.264;2023-08-12T11:10:33;3;2;
78063;PMS5003;67429;51.596;-3.264;2023-08-12T11:12:58;4;3;
78063;PMS5003;67429;51.596;-3.264;2023-08-12T11:15:29;0;0;
78063;PMS5003;67429;51.596;-3.264;2023-08-12T11:17:49;2;2;
78063;PMS5003;67429;51.596;-3.264;2023-08-12T11:20:14;2;2;
78063;PMS5003;67429;51.596;-3.264;2023-08-12T11:22:40;3;2;
78063;PMS5003;67429;51.596;-3.264;2023-08-12T11:25:05;2;2;
78063;PMS5003;67429;51.596;-3.264;2023-08-12T11:29:55;3;2;
78063;PMS5003;67429;51.596;-3.264;2023-08-12T11:32:26;4;3;
78063;PMS5003;67429;51.596;-3.264;2023-08-12T11:34:46;3;2;
78063;PMS5003;67429;51.596;-3.264;2023-08-12T11:37:12;3;2;
78063;PMS5003;67429;51.596;-3.264;2023-08-12T11:39:37;2;2;
78063;PMS5003;67429;51.596;-3.264;2023-08-12T11:42:02;8;8;
78063;PMS5003;67429;51.596;-3.264;2023-08-12T11:44:28;4;3;
78063;PMS5003;67429;51.596;-3.264;2023-08-12T11:46:53;1;0;
78063;PMS5003;67429;51.596;-3.264;2023-08-12T11:49:19;1;1;
78063;PMS5003;67429;51.596;-3.264;2023-08-12T11:51:45;1;1;
78063;PMS5003;67429;51.596;-3.264;2023-08-12T11:54:09;1;1;
78063;PMS5003;67429;51.596;-3.264;2023-08-12T11:56:35;2;2;
78063;PMS5003;67429;51.596;-3.264;2023-08-12T11:59:00;1;1;
78063;PMS5003;67429;51.596;-3.264;2023-08-12T12:01:26;2;2;
78063;PMS5003;67429;51.596;-3.264;2023-08-12T12:03:51;1;1;
78063;PMS5003;67429;51.596;-3.264;2023-08-12T12:06:17;0;0;
78063;PMS5003;67429;51.596;-3.264;2023-08-12T12:08:43;1;0;
78063;PMS5003;67429;51.596;-3.264;2023-08-12T12:11:08;1;1;
78063;PMS5003;67429;51.596;-3.264;2023-08-12T12:13:34;0;0;
78063;PMS5003;67429;51.596;-3.264;2023-08-12T12:15:59;1;1;
78063;PMS5003;67429;51.596;-3.264;2023-08-12T12:18:24;2;1;
78063;PMS5003;67429;51.596;-3.264;2023-08-12T12:23:15;3;3;
78063;PMS5003;67429;51.596;-3.264;2023-08-12T12:25:40;2;1;
78063;PMS5003;67429;51.596;-3.264;2023-08-12T12:28:06;5;3;
78063;PMS5003;67429;51.596;-3.264;2023-08-12T12:30:32;3;3;
78063;PMS5003;67429;51.596;-3.264;2023-08-12T12:32:57;4;2;
78063;PMS5003;67429;51.596;-3.264;2023-08-12T12:35:22;2;2;
78063;PMS5003;67429;51.596;-3.264;2023-08-12T12:37:48;1;1;
78063;PMS5003;67429;51.596;-3.264;2023-08-12T12:40:13;3;2;
78063;PMS5003;67429;51.596;-3.264;2023-08-12T12:42:39;3;2;
78063;PMS5003;67429;51.596;-3.264;2023-08-12T12:45:05;3;3;
78063;PMS5003;67429;51.596;-3.264;2023-08-12T12:47:29;3;3;
78063;PMS5003;67429;51.596;-3.264;2023-08-12T12:49:55;2;2;
78063;PMS5003;67429;51.596;-3.264;2023-08-12T12:52:25;4;3;
78063;PMS5003;67429;51.596;-3.264;2023-08-12T12:54:46;2;2;
78063;PMS5003;67429;51.596;-3.264;2023-08-12T12:57:11;2;2;
78063;PMS5003;67429;51.596;-3.264;2023-08-12T12:59:37;3;3;
78063;PMS5003;67429;51.596;-3.264;2023-08-12T13:02:02;3;2;
78063;PMS5003;67429;51.596;-3.264;2023-08-12T13:04:28;3;2;
78063;PMS5003;67429;51.596;-3.264;2023-08-12T13:06:53;4;3;
78063;PMS5003;67429;51.596;-3.264;2023-08-12T13:09:18;3;3;
78063;PMS5003;67429;51.596;-3.264;2023-08-12T13:11:44;4;4;
78063;PMS5003;67429;51.596;-3.264;2023-08-12T13:14:10;2;2;
78063;PMS5003;67429;51.596;-3.264;2023-08-12T13:16:35;2;2;
78063;PMS5003;67429;51.596;-3.264;2023-08-12T13:19:00;2;2;
78063;PMS5003;67429;51.596;-3.264;2023-08-12T13:21:26;2;2;
78063;PMS5003;67429;51.596;-3.264;2023-08-12T13:23:51;2;2;
78063;PMS5003;67429;51.596;-3.264;2023-08-12T13:26:17;3;2;
78063;PMS5003;67429;51.596;-3.264;2023-08-12T13:28:42;4;3;
78063;PMS5003;67429;51.596;-3.264;2023-08-12T13:31:08;2;2;
78063;PMS5003;67429;51.596;-3.264;2023-08-12T13:33:33;6;5;
78063;PMS5003;67429;51.596;-3.264;2023-08-12T13:35:59;7;4;
78063;PMS5003;67429;51.596;-3.264;2023-08-12T13:38:24;2;2;
78063;PMS5003;67429;51.596;-3.264;2023-08-12T13:40:49;3;2;
78063;PMS5003;67429;51.596;-3.264;2023-08-12T13:43:14;2;2;
78063;PMS5003;67429;51.596;-3.264;2023-08-12T13:45:40;3;2;
78063;PMS5003;67429;51.596;-3.264;2023-08-12T13:48:06;2;1;
78063;PMS5003;67429;51.596;-3.264;2023-08-12T13:50:31;3;3;
78063;PMS5003;67429;51.596;-3.264;2023-08-12T13:52:56;1;1;
78063;PMS5003;67429;51.596;-3.264;2023-08-12T13:55:22;3;3;
78063;PMS5003;67429;51.596;-3.264;2023-08-12T13:57:47;4;3;
78063;PMS5003;67429;51.596;-3.264;2023-08-12T14:00:12;2;2;
78063;PMS5003;67429;51.596;-3.264;2023-08-12T14:02:37;4;3;
78063;PMS5003;67429;51.596;-3.264;2023-08-12T14:05:03;4;3;
78063;PMS5003;67429;51.596;-3.264;2023-08-12T14:07:28;3;3;
78063;PMS5003;67429;51.596;-3.264;2023-08-12T14:09:54;3;2;
78063;PMS5003;67429;51.596;-3.264;2023-08-12T14:12:19;4;3;
78063;PMS5003;67429;51.596;-3.264;2023-08-12T14:14:45;3;3;
78063;PMS5003;67429;51.596;-3.264;2023-08-12T14:17:10;2;1;
78063;PMS5003;67429;51.596;-3.264;2023-08-12T14:19:36;3;3;
78063;PMS5003;67429;51.596;-3.264;2023-08-12T14:22:01;3;3;
78063;PMS5003;67429;51.596;-3.264;2023-08-12T14:24:27;2;2;
78063;PMS5003;67429;51.596;-3.264;2023-08-12T14:26:52;4;4;
78063;PMS5003;67429;51.596;-3.264;2023-08-12T14:29:17;4;3;
78063;PMS5003;67429;51.596;-3.264;2023-08-12T14:31:43;3;3;
78063;PMS5003;67429;51.596;-3.264;2023-08-12T14:34:08;2;2;
78063;PMS5003;67429;51.596;-3.264;2023-08-12T14:36:34;2;2;
78063;PMS5003;67429;51.596;-3.264;2023-08-12T14:38:59;4;3;
78063;PMS5003;67429;51.596;-3.264;2023-08-12T14:41:25;3;3;
78063;PMS5003;67429;51.596;-3.264;2023-08-12T14:43:50;2;2;
78063;PMS5003;67429;51.596;-3.264;2023-08-12T14:46:16;1;1;
78063;PMS5003;67429;51.596;-3.264;2023-08-12T14:48:41;1;1;
78063;PMS5003;67429;51.596;-3.264;2023-08-12T14:51:07;4;3;
78063;PMS5003;67429;51.596;-3.264;2023-08-12T14:53:32;2;2;
78063;PMS5003;67429;51.596;-3.264;2023-08-12T14:55:58;3;1;
78063;PMS5003;67429;51.596;-3.264;2023-08-12T14:58:23;2;1;
78063;PMS5003;67429;51.596;-3.264;2023-08-12T15:00:48;2;2;
78063;PMS5003;67429;51.596;-3.264;2023-08-12T15:03:14;2;2;
78063;PMS5003;67429;51.596;-3.264;2023-08-12T15:05:39;2;2;
78063;PMS5003;67429;51.596;-3.264;2023-08-12T15:08:05;3;3;
78063;PMS5003;67429;51.596;-3.264;2023-08-12T15:10:30;3;3;
78063;PMS5003;67429;51.596;-3.264;2023-08-12T15:12:55;3;3;
78063;PMS5003;67429;51.596;-3.264;2023-08-12T15:15:21;3;3;
78063;PMS5003;67429;51.596;-3.264;2023-08-12T15:17:47;4;3;
78063;PMS5003;67429;51.596;-3.264;2023-08-12T15:20:12;2;2;
78063;PMS5003;67429;51.596;-3.264;2023-08-12T15:22:37;6;4;
78063;PMS5003;67429;51.596;-3.264;2023-08-12T15:25:03;5;4;
78063;PMS5003;67429;51.596;-3.264;2023-08-12T15:27:28;3;3;
78063;PMS5003;67429;51.596;-3.264;2023-08-12T15:29:54;4;4;
78063;PMS5003;67429;51.596;-3.264;2023-08-12T15:32:19;5;5;
78063;PMS5003;67429;51.596;-3.264;2023-08-12T15:34:45;5;4;
78063;PMS5003;67429;51.596;-3.264;2023-08-12T15:37:10;3;3;
78063;PMS5003;67429;51.596;-3.264;2023-08-12T15:39:35;3;3;
78063;PMS5003;67429;51.596;-3.264;2023-08-12T15:42:01;3;3;
78063;PMS5003;67429;51.596;-3.264;2023-08-12T15:44:26;3;3;
78063;PMS5003;67429;51.596;-3.264;2023-08-12T15:46:52;5;5;
78063;PMS5003;67429;51.596;-3.264;2023-08-12T15:49:17;3;2;
78063;PMS5003;67429;51.596;-3.264;2023-08-12T15:51:42;4;4;
78063;PMS5003;67429;51.596;-3.264;2023-08-12T15:54:08;6;3;
78063;PMS5003;67429;51.596;-3.264;2023-08-12T15:56:34;5;5;
78063;PMS5003;67429;51.596;-3.264;2023-08-12T15:58:59;3;3;
78063;PMS5003;67429;51.596;-3.264;2023-08-12T16:01:24;5;4;
78063;PMS5003;67429;51.596;-3.264;2023-08-12T16:03:49;2;2;
78063;PMS5003;67429;51.596;-3.264;2023-08-12T16:06:14;3;3;
78063;PMS5003;67429;51.596;-3.264;2023-08-12T16:08:39;4;4;
78063;PMS5003;67429;51.596;-3.264;2023-08-12T16:11:05;5;4;
78063;PMS5003;67429;51.596;-3.264;2023-08-12T16:13:30;7;6;
78063;PMS5003;67429;51.596;-3.264;2023-08-12T16:15:55;4;4;
78063;PMS5003;67429;51.596;-3.264;2023-08-12T16:18:21;6;5;
78063;PMS5003;67429;51.596;-3.264;2023-08-12T16:20:46;4;4;
78063;PMS5003;67429;51.596;-3.264;2023-08-12T16:23:12;6;4;
78063;PMS5003;67429;51.596;-3.264;2023-08-12T16:25:37;3;3;
78063;PMS5003;67429;51.596;-3.264;2023-08-12T16:28:03;5;3;